sensor_id;sensor_type;location;lat;lon;timestamp;P1;durP1;ratioP1;P2;durP2;ratioP2
7255;SDS011;3669;49.200;9.242;2023-07-16T00:01:15;4.57;;;2.40;;
7255;SDS011;3669;49.200;9.242;2023-07-16T00:03:43;3.17;;;2.20;;
7255;SDS011;3669;49.200;9.242;2023-07-16T00:06:10;2.38;;;2.17;;
7255;SDS011;3669;49.200;9.242;2023-07-16T00:08:37;3.08;;;2.00;;
7255;SDS011;3669;49.200;9.242;2023-07-16T00:11:04;3.45;;;2.30;;
7255;SDS011;3669;49.200;9.242;2023-07-16T00:13:31;3.40;;;2.22;;
7255;SDS011;3669;49.200;9.242;2023-07-16T00:15:58;2.40;;;1.98;;
7255;SDS011;3669;49.200;9.242;2023-07-16T00:18:25;2.63;;;2.10;;
7255;SDS011;3669;49.200;9.242;2023-07-16T00:20:52;9.15;;;8.65;;
7255;SDS011;3669;49.200;9.242;2023-07-16T00:23:20;2.83;;;2.47;;
7255;SDS011;3669;49.200;9.242;2023-07-16T00:25:47;2.75;;;2.40;;
7255;SDS011;3669;49.200;9.242;2023-07-16T00:28:14;3.83;;;1.90;;
7255;SDS011;3669;49.200;9.242;2023-07-16T00:30:41;2.50;;;2.00;;
7255;SDS011;3669;49.200;9.242;2023-07-16T00:33:08;1.98;;;1.75;;
7255;SDS011;3669;49.200;9.242;2023-07-16T00:35:36;2.22;;;2.03;;
7255;SDS011;3669;49.200;9.242;2023-07-16T00:38:03;2.15;;;1.90;;
7255;SDS011;3669;49.200;9.242;2023-07-16T00:40:30;2.40;;;1.92;;
7255;SDS011;3669;49.200;9.242;2023-07-16T00:42:57;1.90;;;1.67;;
7255;SDS011;3669;49.200;9.242;2023-07-16T00:45:24;2.53;;;1.75;;
7255;SDS011;3669;49.200;9.242;2023-07-16T00:47:51;3.38;;;2.08;;
7255;SDS011;3669;49.200;9.242;2023-07-16T00:50:18;2.40;;;2.13;;
7255;SDS011;3669;49.200;9.242;2023-07-16T00:52:46;2.03;;;1.60;;
7255;SDS011;3669;49.200;9.242;2023-07-16T00:55:13;10.80;;;10.25;;
7255;SDS011;3669;49.200;9.242;2023-07-16T00:57:40;17.77;;;16.83;;
7255;SDS011;3669;49.200;9.242;2023-07-16T01:00:07;22.25;;;21.20;;
7255;SDS011;3669;49.200;9.242;2023-07-16T01:02:35;26.55;;;25.30;;
7255;SDS011;3669;49.200;9.242;2023-07-16T01:05:02;32.40;;;30.80;;
7255;SDS011;3669;49.200;9.242;2023-07-16T01:07:29;9.23;;;8.77;;
7255;SDS011;3669;49.200;9.242;2023-07-16T01:09:57;2.90;;;1.98;;
7255;SDS011;3669;49.200;9.242;2023-07-16T01:12:25;3.08;;;1.60;;
7255;SDS011;3669;49.200;9.242;2023-07-16T01:14:54;2.20;;;1.60;;
7255;SDS011;3669;49.200;9.242;2023-07-16T01:17:23;2.33;;;1.58;;
7255;SDS011;3669;49.200;9.242;2023-07-16T01:19:50;1.70;;;1.60;;
7255;SDS011;3669;49.200;9.242;2023-07-16T01:25:05;1.58;;;1.48;;
7255;SDS011;3669;49.200;9.242;2023-07-16T01:27:49;1.92;;;1.40;;
7255;SDS011;3669;49.200;9.242;2023-07-16T01:30:18;1.73;;;1.55;;
7255;SDS011;3669;49.200;9.242;2023-07-16T01:32:46;2.78;;;1.50;;
7255;SDS011;3669;49.200;9.242;2023-07-16T01:35:20;2.42;;;1.50;;
7255;SDS011;3669;49.200;9.242;2023-07-16T01:37:48;1.58;;;1.38;;
7255;SDS011;3669;49.200;9.242;2023-07-16T01:40:15;1.50;;;1.40;;
7255;SDS011;3669;49.200;9.242;2023-07-16T01:42:42;2.05;;;1.42;;
7255;SDS011;3669;49.200;9.242;2023-07-16T01:45:09;1.65;;;1.55;;
7255;SDS011;3669;49.200;9.242;2023-07-16T01:50:12;2.10;;;1.50;;
7255;SDS011;3669;49.200;9.242;2023-07-16T01:52:40;1.65;;;1.40;;
7255;SDS011;3669;49.200;9.242;2023-07-16T01:55:07;1.55;;;1.45;;
7255;SDS011;3669;49.200;9.242;2023-07-16T01:57:34;3.70;;;1.80;;
7255;SDS011;3669;49.200;9.242;2023-07-16T02:00:01;5.53;;;5.22;;
7255;SDS011;3669;49.200;9.242;2023-07-16T02:02:28;20.10;;;19.13;;
7255;SDS011;3669;49.200;9.242;2023-07-16T02:04:55;21.77;;;20.75;;
7255;SDS011;3669;49.200;9.242;2023-07-16T02:07:22;18.92;;;17.90;;
7255;SDS011;3669;49.200;9.242;2023-07-16T02:09:50;17.10;;;16.25;;
7255;SDS011;3669;49.200;9.242;2023-07-16T02:12:16;7.20;;;6.72;;
7255;SDS011;3669;49.200;9.242;2023-07-16T02:14:43;2.50;;;2.25;;
7255;SDS011;3669;49.200;9.242;2023-07-16T02:17:10;1.85;;;1.35;;
7255;SDS011;3669;49.200;9.242;2023-07-16T02:19:37;2.03;;;1.60;;
7255;SDS011;3669;49.200;9.242;2023-07-16T02:22:05;2.50;;;1.60;;
7255;SDS011;3669;49.200;9.242;2023-07-16T02:24:32;1.83;;;1.65;;
7255;SDS011;3669;49.200;9.242;2023-07-16T02:27:00;1.98;;;1.40;;
7255;SDS011;3669;49.200;9.242;2023-07-16T02:29:27;3.00;;;1.58;;
7255;SDS011;3669;49.200;9.242;2023-07-16T02:31:54;1.73;;;1.63;;
7255;SDS011;3669;49.200;9.242;2023-07-16T02:34:21;1.50;;;1.40;;
7255;SDS011;3669;49.200;9.242;2023-07-16T02:36:48;2.65;;;1.80;;
7255;SDS011;3669;49.200;9.242;2023-07-16T02:39:16;1.80;;;1.55;;
7255;SDS011;3669;49.200;9.242;2023-07-16T02:41:43;2.28;;;1.88;;
7255;SDS011;3669;49.200;9.242;2023-07-16T02:44:11;2.25;;;1.92;;
7255;SDS011;3669;49.200;9.242;2023-07-16T02:46:38;1.92;;;1.70;;
7255;SDS011;3669;49.200;9.242;2023-07-16T02:49:05;2.53;;;1.70;;
7255;SDS011;3669;49.200;9.242;2023-07-16T02:51:32;1.80;;;1.70;;
7255;SDS011;3669;49.200;9.242;2023-07-16T02:53:59;1.70;;;1.50;;
7255;SDS011;3669;49.200;9.242;2023-07-16T02:56:26;3.17;;;1.60;;
7255;SDS011;3669;49.200;9.242;2023-07-16T02:58:58;2.30;;;1.38;;
7255;SDS011;3669;49.200;9.242;2023-07-16T03:01:26;2.38;;;1.30;;
7255;SDS011;3669;49.200;9.242;2023-07-16T03:03:53;2.67;;;1.40;;
7255;SDS011;3669;49.200;9.242;2023-07-16T03:06:20;2.42;;;1.30;;
7255;SDS011;3669;49.200;9.242;2023-07-16T03:08:47;1.58;;;1.48;;
7255;SDS011;3669;49.200;9.242;2023-07-16T03:11:14;2.25;;;1.70;;
7255;SDS011;3669;49.200;9.242;2023-07-16T03:13:41;1.60;;;1.50;;
7255;SDS011;3669;49.200;9.242;2023-07-16T03:16:08;1.88;;;1.60;;
7255;SDS011;3669;49.200;9.242;2023-07-16T03:18:36;2.10;;;1.90;;
7255;SDS011;3669;49.200;9.242;2023-07-16T03:21:02;2.42;;;1.65;;
7255;SDS011;3669;49.200;9.242;2023-07-16T03:23:30;3.25;;;1.70;;
7255;SDS011;3669;49.200;9.242;2023-07-16T03:25:57;3.58;;;1.70;;
7255;SDS011;3669;49.200;9.242;2023-07-16T03:28:24;2.25;;;1.48;;
7255;SDS011;3669;49.200;9.242;2023-07-16T03:30:51;18.55;;;17.55;;
7255;SDS011;3669;49.200;9.242;2023-07-16T03:33:19;2.33;;;1.88;;
7255;SDS011;3669;49.200;9.242;2023-07-16T03:35:47;7.70;;;7.18;;
7255;SDS011;3669;49.200;9.242;2023-07-16T03:38:14;7.38;;;7.07;;
7255;SDS011;3669;49.200;9.242;2023-07-16T03:40:48;27.83;;;26.45;;
7255;SDS011;3669;49.200;9.242;2023-07-16T03:43:18;15.38;;;14.43;;
7255;SDS011;3669;49.200;9.242;2023-07-16T03:45:46;20.20;;;19.13;;
7255;SDS011;3669;49.200;9.242;2023-07-16T03:48:13;23.08;;;22.13;;
7255;SDS011;3669;49.200;9.242;2023-07-16T03:50:40;19.88;;;18.90;;
7255;SDS011;3669;49.200;9.242;2023-07-16T03:53:07;20.85;;;19.75;;
7255;SDS011;3669;49.200;9.242;2023-07-16T03:55:34;13.90;;;13.23;;
7255;SDS011;3669;49.200;9.242;2023-07-16T03:58:02;17.83;;;16.88;;
7255;SDS011;3669;49.200;9.242;2023-07-16T04:00:29;11.57;;;10.90;;
7255;SDS011;3669;49.200;9.242;2023-07-16T04:02:55;5.65;;;4.72;;
7255;SDS011;3669;49.200;9.242;2023-07-16T04:05:22;2.78;;;1.73;;
7255;SDS011;3669;49.200;9.242;2023-07-16T04:07:49;3.10;;;1.70;;
7255;SDS011;3669;49.200;9.242;2023-07-16T04:10:16;1.95;;;1.63;;
7255;SDS011;3669;49.200;9.242;2023-07-16T04:12:43;3.25;;;1.67;;
7255;SDS011;3669;49.200;9.242;2023-07-16T04:15:11;2.45;;;1.50;;
7255;SDS011;3669;49.200;9.242;2023-07-16T04:17:39;3.08;;;1.80;;
7255;SDS011;3669;49.200;9.242;2023-07-16T04:20:06;2.88;;;1.90;;
7255;SDS011;3669;49.200;9.242;2023-07-16T04:22:34;3.97;;;1.90;;
7255;SDS011;3669;49.200;9.242;2023-07-16T04:25:01;3.55;;;1.77;;
7255;SDS011;3669;49.200;9.242;2023-07-16T04:27:29;2.95;;;1.80;;
7255;SDS011;3669;49.200;9.242;2023-07-16T04:29:56;3.40;;;1.80;;
7255;SDS011;3669;49.200;9.242;2023-07-16T04:32:23;1.67;;;1.58;;
7255;SDS011;3669;49.200;9.242;2023-07-16T04:34:50;2.75;;;1.90;;
7255;SDS011;3669;49.200;9.242;2023-07-16T04:37:17;3.75;;;1.98;;
7255;SDS011;3669;49.200;9.242;2023-07-16T04:39:44;2.42;;;1.70;;
7255;SDS011;3669;49.200;9.242;2023-07-16T04:42:11;1.92;;;1.50;;
7255;SDS011;3669;49.200;9.242;2023-07-16T04:44:38;2.47;;;1.58;;
7255;SDS011;3669;49.200;9.242;2023-07-16T04:47:06;3.30;;;2.00;;
7255;SDS011;3669;49.200;9.242;2023-07-16T04:49:34;1.70;;;1.60;;
7255;SDS011;3669;49.200;9.242;2023-07-16T04:52:19;2.83;;;1.70;;
7255;SDS011;3669;49.200;9.242;2023-07-16T04:54:53;2.75;;;1.80;;
7255;SDS011;3669;49.200;9.242;2023-07-16T04:57:20;2.50;;;1.60;;
7255;SDS011;3669;49.200;9.242;2023-07-16T04:59:47;2.72;;;1.60;;
7255;SDS011;3669;49.200;9.242;2023-07-16T05:02:14;1.92;;;1.58;;
7255;SDS011;3669;49.200;9.242;2023-07-16T05:04:42;1.90;;;1.70;;
7255;SDS011;3669;49.200;9.242;2023-07-16T05:07:26;3.53;;;1.98;;
7255;SDS011;3669;49.200;9.242;2023-07-16T05:09:53;3.22;;;1.90;;
7255;SDS011;3669;49.200;9.242;2023-07-16T05:12:21;2.38;;;1.80;;
7255;SDS011;3669;49.200;9.242;2023-07-16T05:14:48;2.92;;;1.83;;
7255;SDS011;3669;49.200;9.242;2023-07-16T05:18:14;20.17;;;19.17;;
7255;SDS011;3669;49.200;9.242;2023-07-16T05:20:41;24.55;;;23.33;;
7255;SDS011;3669;49.200;9.242;2023-07-16T05:23:09;12.43;;;11.65;;
7255;SDS011;3669;49.200;9.242;2023-07-16T05:25:36;6.88;;;6.40;;
7255;SDS011;3669;49.200;9.242;2023-07-16T05:28:02;2.60;;;2.30;;
7255;SDS011;3669;49.200;9.242;2023-07-16T05:30:30;3.22;;;1.70;;
7255;SDS011;3669;49.200;9.242;2023-07-16T05:32:57;3.00;;;1.60;;
7255;SDS011;3669;49.200;9.242;2023-07-16T05:35:24;4.03;;;1.80;;
7255;SDS011;3669;49.200;9.242;2023-07-16T05:37:51;2.30;;;1.80;;
7255;SDS011;3669;49.200;9.242;2023-07-16T05:40:18;3.67;;;2.28;;
7255;SDS011;3669;49.200;9.242;2023-07-16T05:42:45;3.83;;;2.20;;
7255;SDS011;3669;49.200;9.242;2023-07-16T05:45:13;2.28;;;1.80;;
7255;SDS011;3669;49.200;9.242;2023-07-16T05:47:40;3.08;;;1.63;;
7255;SDS011;3669;49.200;9.242;2023-07-16T05:50:07;3.55;;;1.95;;
7255;SDS011;3669;49.200;9.242;2023-07-16T05:52:34;4.20;;;2.05;;
7255;SDS011;3669;49.200;9.242;2023-07-16T05:55:01;2.10;;;1.80;;
7255;SDS011;3669;49.200;9.242;2023-07-16T05:57:29;1.88;;;1.63;;
7255;SDS011;3669;49.200;9.242;2023-07-16T05:59:56;3.60;;;1.80;;
7255;SDS011;3669;49.200;9.242;2023-07-16T06:02:23;3.42;;;1.80;;
7255;SDS011;3669;49.200;9.242;2023-07-16T06:04:50;3.30;;;1.80;;
7255;SDS011;3669;49.200;9.242;2023-07-16T06:07:17;2.63;;;1.52;;
7255;SDS011;3669;49.200;9.242;2023-07-16T06:09:44;2.83;;;1.95;;
7255;SDS011;3669;49.200;9.242;2023-07-16T06:12:11;2.92;;;1.85;;
7255;SDS011;3669;49.200;9.242;2023-07-16T06:14:38;3.45;;;1.92;;
7255;SDS011;3669;49.200;9.242;2023-07-16T06:17:05;2.28;;;1.60;;
7255;SDS011;3669;49.200;9.242;2023-07-16T06:19:37;3.08;;;1.60;;
7255;SDS011;3669;49.200;9.242;2023-07-16T06:22:04;2.75;;;1.85;;
7255;SDS011;3669;49.200;9.242;2023-07-16T06:24:32;3.17;;;2.30;;
7255;SDS011;3669;49.200;9.242;2023-07-16T06:26:59;1.95;;;1.73;;
7255;SDS011;3669;49.200;9.242;2023-07-16T06:29:26;3.63;;;1.80;;
7255;SDS011;3669;49.200;9.242;2023-07-16T06:31:57;3.10;;;2.05;;
7255;SDS011;3669;49.200;9.242;2023-07-16T06:34:25;2.97;;;2.08;;
7255;SDS011;3669;49.200;9.242;2023-07-16T06:36:52;3.50;;;1.80;;
7255;SDS011;3669;49.200;9.242;2023-07-16T06:39:19;2.50;;;1.92;;
7255;SDS011;3669;49.200;9.242;2023-07-16T06:41:47;2.58;;;1.80;;
7255;SDS011;3669;49.200;9.242;2023-07-16T06:44:14;3.58;;;1.85;;
7255;SDS011;3669;49.200;9.242;2023-07-16T06:46:52;5.13;;;2.45;;
7255;SDS011;3669;49.200;9.242;2023-07-16T06:49:21;3.25;;;1.80;;
7255;SDS011;3669;49.200;9.242;2023-07-16T06:51:48;2.25;;;1.70;;
7255;SDS011;3669;49.200;9.242;2023-07-16T06:54:15;3.25;;;1.90;;
7255;SDS011;3669;49.200;9.242;2023-07-16T06:56:42;2.53;;;1.70;;
7255;SDS011;3669;49.200;9.242;2023-07-16T06:59:09;4.15;;;2.15;;
7255;SDS011;3669;49.200;9.242;2023-07-16T07:01:36;3.63;;;1.90;;
7255;SDS011;3669;49.200;9.242;2023-07-16T07:04:04;3.85;;;1.70;;
7255;SDS011;3669;49.200;9.242;2023-07-16T07:06:31;9.30;;;8.60;;
7255;SDS011;3669;49.200;9.242;2023-07-16T07:08:58;20.35;;;19.02;;
7255;SDS011;3669;49.200;9.242;2023-07-16T07:11:25;45.15;;;42.63;;
7255;SDS011;3669;49.200;9.242;2023-07-16T07:13:52;2.90;;;2.13;;
7255;SDS011;3669;49.200;9.242;2023-07-16T07:16:19;3.30;;;2.15;;
7255;SDS011;3669;49.200;9.242;2023-07-16T07:18:46;4.32;;;2.22;;
7255;SDS011;3669;49.200;9.242;2023-07-16T07:21:13;2.67;;;1.90;;
7255;SDS011;3669;49.200;9.242;2023-07-16T07:23:41;3.05;;;1.95;;
7255;SDS011;3669;49.200;9.242;2023-07-16T07:26:08;4.70;;;1.80;;
7255;SDS011;3669;49.200;9.242;2023-07-16T07:28:35;3.03;;;2.50;;
7255;SDS011;3669;49.200;9.242;2023-07-16T07:31:02;3.15;;;1.92;;
7255;SDS011;3669;49.200;9.242;2023-07-16T07:33:29;5.65;;;2.38;;
7255;SDS011;3669;49.200;9.242;2023-07-16T07:35:58;3.33;;;1.90;;
7255;SDS011;3669;49.200;9.242;2023-07-16T07:38:26;3.40;;;1.90;;
7255;SDS011;3669;49.200;9.242;2023-07-16T07:40:54;3.25;;;2.20;;
7255;SDS011;3669;49.200;9.242;2023-07-16T07:43:21;4.15;;;2.00;;
7255;SDS011;3669;49.200;9.242;2023-07-16T07:45:48;5.10;;;3.88;;
7255;SDS011;3669;49.200;9.242;2023-07-16T07:48:15;3.58;;;2.30;;
7255;SDS011;3669;49.200;9.242;2023-07-16T07:50:43;4.70;;;2.30;;
7255;SDS011;3669;49.200;9.242;2023-07-16T07:53:10;3.15;;;2.28;;
7255;SDS011;3669;49.200;9.242;2023-07-16T07:55:37;3.45;;;2.10;;
7255;SDS011;3669;49.200;9.242;2023-07-16T07:58:04;4.72;;;2.47;;
7255;SDS011;3669;49.200;9.242;2023-07-16T08:00:31;3.78;;;2.30;;
7255;SDS011;3669;49.200;9.242;2023-07-16T08:02:58;6.15;;;2.15;;
7255;SDS011;3669;49.200;9.242;2023-07-16T08:05:26;2.90;;;2.00;;
7255;SDS011;3669;49.200;9.242;2023-07-16T08:07:53;4.28;;;2.15;;
7255;SDS011;3669;49.200;9.242;2023-07-16T08:10:22;3.80;;;2.50;;
7255;SDS011;3669;49.200;9.242;2023-07-16T08:12:49;3.13;;;2.20;;
7255;SDS011;3669;49.200;9.242;2023-07-16T08:15:17;4.55;;;2.10;;
7255;SDS011;3669;49.200;9.242;2023-07-16T08:17:45;2.85;;;2.17;;
7255;SDS011;3669;49.200;9.242;2023-07-16T08:20:13;4.10;;;2.22;;
7255;SDS011;3669;49.200;9.242;2023-07-16T08:22:40;2.83;;;2.30;;
7255;SDS011;3669;49.200;9.242;2023-07-16T08:25:08;3.90;;;1.95;;
7255;SDS011;3669;49.200;9.242;2023-07-16T08:27:35;4.95;;;2.50;;
7255;SDS011;3669;49.200;9.242;2023-07-16T08:30:02;4.32;;;2.30;;
7255;SDS011;3669;49.200;9.242;2023-07-16T08:32:29;3.83;;;2.30;;
7255;SDS011;3669;49.200;9.242;2023-07-16T08:34:56;3.80;;;2.40;;
7255;SDS011;3669;49.200;9.242;2023-07-16T08:37:23;4.60;;;2.55;;
7255;SDS011;3669;49.200;9.242;2023-07-16T08:39:54;4.85;;;2.30;;
7255;SDS011;3669;49.200;9.242;2023-07-16T08:42:22;3.50;;;2.30;;
7255;SDS011;3669;49.200;9.242;2023-07-16T08:44:50;4.97;;;2.50;;
7255;SDS011;3669;49.200;9.242;2023-07-16T08:47:17;4.13;;;2.33;;
7255;SDS011;3669;49.200;9.242;2023-07-16T08:49:54;3.20;;;2.45;;
7255;SDS011;3669;49.200;9.242;2023-07-16T08:52:26;2.42;;;2.10;;
7255;SDS011;3669;49.200;9.242;2023-07-16T08:54:54;3.33;;;2.00;;
7255;SDS011;3669;49.200;9.242;2023-07-16T08:57:21;3.30;;;2.03;;
7255;SDS011;3669;49.200;9.242;2023-07-16T08:59:49;4.10;;;2.40;;
7255;SDS011;3669;49.200;9.242;2023-07-16T09:02:20;3.17;;;2.35;;
7255;SDS011;3669;49.200;9.242;2023-07-16T09:04:48;4.05;;;2.05;;
7255;SDS011;3669;49.200;9.242;2023-07-16T09:07:15;5.50;;;2.17;;
7255;SDS011;3669;49.200;9.242;2023-07-16T09:09:42;3.42;;;2.00;;
7255;SDS011;3669;49.200;9.242;2023-07-16T09:12:12;15.13;;;14.27;;
7255;SDS011;3669;49.200;9.242;2023-07-16T09:14:43;5.68;;;5.10;;
7255;SDS011;3669;49.200;9.242;2023-07-16T09:17:12;18.70;;;17.45;;
7255;SDS011;3669;49.200;9.242;2023-07-16T09:19:39;27.70;;;26.23;;
7255;SDS011;3669;49.200;9.242;2023-07-16T09:22:06;20.98;;;19.85;;
7255;SDS011;3669;49.200;9.242;2023-07-16T09:24:35;28.75;;;27.00;;
7255;SDS011;3669;49.200;9.242;2023-07-16T09:27:02;6.20;;;5.60;;
7255;SDS011;3669;49.200;9.242;2023-07-16T09:29:29;4.38;;;2.50;;
7255;SDS011;3669;49.200;9.242;2023-07-16T09:31:56;4.60;;;2.40;;
7255;SDS011;3669;49.200;9.242;2023-07-16T09:34:50;5.55;;;2.30;;
7255;SDS011;3669;49.200;9.242;2023-07-16T09:37:17;3.10;;;1.98;;
7255;SDS011;3669;49.200;9.242;2023-07-16T09:39:45;4.30;;;2.47;;
7255;SDS011;3669;49.200;9.242;2023-07-16T09:42:13;2.63;;;1.92;;
7255;SDS011;3669;49.200;9.242;2023-07-16T09:44:41;3.33;;;1.88;;
7255;SDS011;3669;49.200;9.242;2023-07-16T09:47:09;4.25;;;2.30;;
7255;SDS011;3669;49.200;9.242;2023-07-16T09:49:36;3.17;;;2.10;;
7255;SDS011;3669;49.200;9.242;2023-07-16T09:52:13;4.90;;;2.20;;
7255;SDS011;3669;49.200;9.242;2023-07-16T09:54:41;5.75;;;2.28;;
7255;SDS011;3669;49.200;9.242;2023-07-16T09:57:08;5.00;;;1.88;;
7255;SDS011;3669;49.200;9.242;2023-07-16T09:59:36;3.78;;;2.10;;
7255;SDS011;3669;49.200;9.242;2023-07-16T10:02:04;4.30;;;2.25;;
7255;SDS011;3669;49.200;9.242;2023-07-16T10:04:39;2.97;;;2.10;;
7255;SDS011;3669;49.200;9.242;2023-07-16T10:07:06;4.80;;;2.53;;
7255;SDS011;3669;49.200;9.242;2023-07-16T10:09:38;3.20;;;2.05;;
7255;SDS011;3669;49.200;9.242;2023-07-16T10:12:18;4.22;;;2.38;;
7255;SDS011;3669;49.200;9.242;2023-07-16T10:14:49;4.90;;;2.10;;
7255;SDS011;3669;49.200;9.242;2023-07-16T10:17:29;3.30;;;2.10;;
7255;SDS011;3669;49.200;9.242;2023-07-16T10:22:35;2.70;;;2.00;;
7255;SDS011;3669;49.200;9.242;2023-07-16T10:25:03;3.80;;;2.00;;
7255;SDS011;3669;49.200;9.242;2023-07-16T10:27:31;3.40;;;2.10;;
7255;SDS011;3669;49.200;9.242;2023-07-16T10:30:00;2.45;;;1.85;;
7255;SDS011;3669;49.200;9.242;2023-07-16T10:32:31;3.38;;;2.20;;
7255;SDS011;3669;49.200;9.242;2023-07-16T10:34:58;3.22;;;2.38;;
7255;SDS011;3669;49.200;9.242;2023-07-16T10:37:26;3.47;;;2.25;;
7255;SDS011;3669;49.200;9.242;2023-07-16T10:39:53;2.72;;;2.00;;
7255;SDS011;3669;49.200;9.242;2023-07-16T10:42:22;4.22;;;2.20;;
7255;SDS011;3669;49.200;9.242;2023-07-16T10:44:50;2.97;;;2.15;;
7255;SDS011;3669;49.200;9.242;2023-07-16T10:47:24;2.92;;;2.00;;
7255;SDS011;3669;49.200;9.242;2023-07-16T10:49:52;3.72;;;2.10;;
7255;SDS011;3669;49.200;9.242;2023-07-16T10:52:20;3.22;;;2.30;;
7255;SDS011;3669;49.200;9.242;2023-07-16T10:54:48;3.78;;;2.25;;
7255;SDS011;3669;49.200;9.242;2023-07-16T10:57:16;2.80;;;2.05;;
7255;SDS011;3669;49.200;9.242;2023-07-16T10:59:45;3.60;;;2.35;;
7255;SDS011;3669;49.200;9.242;2023-07-16T11:02:14;3.22;;;2.17;;
7255;SDS011;3669;49.200;9.242;2023-07-16T11:04:42;16.25;;;15.25;;
7255;SDS011;3669;49.200;9.242;2023-07-16T11:07:10;20.67;;;19.63;;
7255;SDS011;3669;49.200;9.242;2023-07-16T11:09:41;18.17;;;17.00;;
7255;SDS011;3669;49.200;9.242;2023-07-16T11:12:09;26.00;;;24.58;;
7255;SDS011;3669;49.200;9.242;2023-07-16T11:14:37;20.55;;;19.52;;
7255;SDS011;3669;49.200;9.242;2023-07-16T11:17:07;19.85;;;18.85;;
7255;SDS011;3669;49.200;9.242;2023-07-16T11:19:36;24.00;;;22.63;;
7255;SDS011;3669;49.200;9.242;2023-07-16T11:22:05;21.30;;;20.02;;
7255;SDS011;3669;49.200;9.242;2023-07-16T11:24:36;24.50;;;23.35;;
7255;SDS011;3669;49.200;9.242;2023-07-16T11:27:05;28.65;;;27.20;;
7255;SDS011;3669;49.200;9.242;2023-07-16T11:29:36;20.00;;;18.73;;
7255;SDS011;3669;49.200;9.242;2023-07-16T11:32:04;20.45;;;19.42;;
7255;SDS011;3669;49.200;9.242;2023-07-16T11:34:31;16.10;;;15.27;;
7255;SDS011;3669;49.200;9.242;2023-07-16T11:37:10;10.65;;;9.93;;
7255;SDS011;3669;49.200;9.242;2023-07-16T11:39:37;29.63;;;28.23;;
7255;SDS011;3669;49.200;9.242;2023-07-16T11:42:04;11.93;;;11.23;;
7255;SDS011;3669;49.200;9.242;2023-07-16T11:44:34;3.35;;;2.17;;
7255;SDS011;3669;49.200;9.242;2023-07-16T11:47:02;3.35;;;2.30;;
7255;SDS011;3669;49.200;9.242;2023-07-16T11:49:29;3.20;;;2.08;;
7255;SDS011;3669;49.200;9.242;2023-07-16T11:51:57;3.85;;;2.47;;
7255;SDS011;3669;49.200;9.242;2023-07-16T11:54:25;3.65;;;2.15;;
7255;SDS011;3669;49.200;9.242;2023-07-16T11:56:52;3.95;;;2.40;;
7255;SDS011;3669;49.200;9.242;2023-07-16T11:59:19;2.70;;;2.00;;
7255;SDS011;3669;49.200;9.242;2023-07-16T12:01:49;3.78;;;2.35;;
7255;SDS011;3669;49.200;9.242;2023-07-16T12:04:16;2.97;;;2.25;;
7255;SDS011;3669;49.200;9.242;2023-07-16T12:06:45;3.05;;;2.30;;
7255;SDS011;3669;49.200;9.242;2023-07-16T12:09:13;2.38;;;2.17;;
7255;SDS011;3669;49.200;9.242;2023-07-16T12:11:40;3.78;;;2.28;;
7255;SDS011;3669;49.200;9.242;2023-07-16T12:14:07;3.95;;;2.25;;
7255;SDS011;3669;49.200;9.242;2023-07-16T12:16:34;2.85;;;2.05;;
7255;SDS011;3669;49.200;9.242;2023-07-16T12:19:01;3.45;;;2.10;;
7255;SDS011;3669;49.200;9.242;2023-07-16T12:21:28;2.80;;;2.38;;
7255;SDS011;3669;49.200;9.242;2023-07-16T12:23:55;4.30;;;2.58;;
7255;SDS011;3669;49.200;9.242;2023-07-16T12:26:23;2.70;;;2.08;;
7255;SDS011;3669;49.200;9.242;2023-07-16T12:28:52;4.18;;;2.20;;
7255;SDS011;3669;49.200;9.242;2023-07-16T12:31:19;4.55;;;2.58;;
7255;SDS011;3669;49.200;9.242;2023-07-16T12:33:46;2.65;;;2.10;;
7255;SDS011;3669;49.200;9.242;2023-07-16T12:36:14;3.60;;;2.20;;
7255;SDS011;3669;49.200;9.242;2023-07-16T12:38:43;3.00;;;2.10;;
7255;SDS011;3669;49.200;9.242;2023-07-16T12:41:10;2.75;;;2.10;;
7255;SDS011;3669;49.200;9.242;2023-07-16T12:43:37;2.78;;;2.35;;
7255;SDS011;3669;49.200;9.242;2023-07-16T12:46:05;2.97;;;2.30;;
7255;SDS011;3669;49.200;9.242;2023-07-16T12:48:32;3.03;;;2.20;;
7255;SDS011;3669;49.200;9.242;2023-07-16T12:50:59;2.83;;;2.05;;
7255;SDS011;3669;49.200;9.242;2023-07-16T12:53:26;2.45;;;1.92;;
7255;SDS011;3669;49.200;9.242;2023-07-16T12:55:53;2.53;;;2.13;;
7255;SDS011;3669;49.200;9.242;2023-07-16T12:58:20;3.72;;;2.35;;
7255;SDS011;3669;49.200;9.242;2023-07-16T13:00:47;3.33;;;2.30;;
7255;SDS011;3669;49.200;9.242;2023-07-16T13:03:14;2.85;;;2.08;;
7255;SDS011;3669;49.200;9.242;2023-07-16T13:05:45;3.70;;;2.20;;
7255;SDS011;3669;49.200;9.242;2023-07-16T13:08:12;3.17;;;2.17;;
7255;SDS011;3669;49.200;9.242;2023-07-16T13:10:40;3.63;;;2.30;;
7255;SDS011;3669;49.200;9.242;2023-07-16T13:13:07;2.67;;;1.90;;
7255;SDS011;3669;49.200;9.242;2023-07-16T13:15:34;2.88;;;2.28;;
7255;SDS011;3669;49.200;9.242;2023-07-16T13:18:02;2.92;;;2.30;;
7255;SDS011;3669;49.200;9.242;2023-07-16T13:20:29;2.78;;;1.85;;
7255;SDS011;3669;49.200;9.242;2023-07-16T13:22:56;4.97;;;2.60;;
7255;SDS011;3669;49.200;9.242;2023-07-16T13:25:24;3.17;;;2.10;;
7255;SDS011;3669;49.200;9.242;2023-07-16T13:27:51;2.78;;;2.13;;
7255;SDS011;3669;49.200;9.242;2023-07-16T13:30:19;2.42;;;1.92;;
7255;SDS011;3669;49.200;9.242;2023-07-16T13:32:46;4.85;;;2.22;;
7255;SDS011;3669;49.200;9.242;2023-07-16T13:35:15;2.58;;;2.10;;
7255;SDS011;3669;49.200;9.242;2023-07-16T13:37:42;3.60;;;2.55;;
7255;SDS011;3669;49.200;9.242;2023-07-16T13:40:09;3.00;;;2.10;;
7255;SDS011;3669;49.200;9.242;2023-07-16T13:42:36;4.07;;;2.17;;
7255;SDS011;3669;49.200;9.242;2023-07-16T13:45:04;4.15;;;2.50;;
7255;SDS011;3669;49.200;9.242;2023-07-16T13:47:31;3.35;;;2.42;;
7255;SDS011;3669;49.200;9.242;2023-07-16T13:49:58;3.15;;;2.42;;
7255;SDS011;3669;49.200;9.242;2023-07-16T13:52:25;3.38;;;2.20;;
7255;SDS011;3669;49.200;9.242;2023-07-16T13:54:52;9.70;;;9.05;;
7255;SDS011;3669;49.200;9.242;2023-07-16T13:57:19;15.95;;;15.00;;
7255;SDS011;3669;49.200;9.242;2023-07-16T13:59:47;18.38;;;17.42;;
7255;SDS011;3669;49.200;9.242;2023-07-16T14:02:13;24.70;;;23.48;;
7255;SDS011;3669;49.200;9.242;2023-07-16T14:04:40;12.75;;;12.07;;
7255;SDS011;3669;49.200;9.242;2023-07-16T14:07:07;7.25;;;6.78;;
7255;SDS011;3669;49.200;9.242;2023-07-16T14:09:34;3.97;;;2.92;;
7255;SDS011;3669;49.200;9.242;2023-07-16T14:12:01;3.53;;;2.17;;
7255;SDS011;3669;49.200;9.242;2023-07-16T14:14:28;2.92;;;2.47;;
7255;SDS011;3669;49.200;9.242;2023-07-16T14:16:55;3.45;;;2.10;;
7255;SDS011;3669;49.200;9.242;2023-07-16T14:19:22;3.58;;;2.25;;
7255;SDS011;3669;49.200;9.242;2023-07-16T14:21:49;2.80;;;2.13;;
7255;SDS011;3669;49.200;9.242;2023-07-16T14:24:17;2.72;;;2.20;;
7255;SDS011;3669;49.200;9.242;2023-07-16T14:26:44;3.17;;;2.45;;
7255;SDS011;3669;49.200;9.242;2023-07-16T14:29:12;4.03;;;2.30;;
7255;SDS011;3669;49.200;9.242;2023-07-16T14:31:39;3.55;;;2.13;;
7255;SDS011;3669;49.200;9.242;2023-07-16T14:34:06;2.88;;;2.30;;
7255;SDS011;3669;49.200;9.242;2023-07-16T14:36:34;3.35;;;2.35;;
7255;SDS011;3669;49.200;9.242;2023-07-16T14:39:01;4.80;;;2.35;;
7255;SDS011;3669;49.200;9.242;2023-07-16T14:41:28;3.13;;;2.25;;
7255;SDS011;3669;49.200;9.242;2023-07-16T14:43:55;3.55;;;2.30;;
7255;SDS011;3669;49.200;9.242;2023-07-16T14:46:22;3.47;;;2.30;;
7255;SDS011;3669;49.200;9.242;2023-07-16T14:48:49;2.25;;;1.80;;
7255;SDS011;3669;49.200;9.242;2023-07-16T14:51:21;3.80;;;2.25;;
7255;SDS011;3669;49.200;9.242;2023-07-16T14:53:48;3.67;;;2.35;;
7255;SDS011;3669;49.200;9.242;2023-07-16T14:56:15;2.63;;;2.22;;
7255;SDS011;3669;49.200;9.242;2023-07-16T14:58:42;3.35;;;2.20;;
7255;SDS011;3669;49.200;9.242;2023-07-16T15:01:10;3.53;;;2.30;;
7255;SDS011;3669;49.200;9.242;2023-07-16T15:03:37;4.07;;;2.35;;
7255;SDS011;3669;49.200;9.242;2023-07-16T15:06:06;3.13;;;2.40;;
7255;SDS011;3669;49.200;9.242;2023-07-16T15:08:34;3.58;;;2.40;;
7255;SDS011;3669;49.200;9.242;2023-07-16T15:11:01;3.17;;;2.25;;
7255;SDS011;3669;49.200;9.242;2023-07-16T15:13:28;2.80;;;2.13;;
7255;SDS011;3669;49.200;9.242;2023-07-16T15:15:55;3.22;;;2.17;;
7255;SDS011;3669;49.200;9.242;2023-07-16T15:18:26;3.33;;;2.28;;
7255;SDS011;3669;49.200;9.242;2023-07-16T15:20:57;11.43;;;10.68;;
7255;SDS011;3669;49.200;9.242;2023-07-16T15:23:24;2.95;;;2.63;;
7255;SDS011;3669;49.200;9.242;2023-07-16T15:25:52;3.70;;;2.25;;